createdAt,value
2022-08-19T00:02:11.656Z,11.23
2022-08-19T00:07:14.377Z,15.35
2022-08-19T00:12:17.586Z,13.23
2022-08-19T00:17:20.348Z,11.38
2022-08-19T00:22:23.266Z,12.35
2022-08-19T00:27:26.911Z,9.90
2022-08-19T00:32:30.422Z,9.38
2022-08-19T00:37:34.303Z,17.70
2022-08-19T00:42:37.119Z,10.68
2022-08-19T00:47:39.932Z,11.65
2022-08-19T00:52:46.244Z,12.00
2022-08-19T00:58:06.003Z,11.32
2022-08-19T01:03:13.196Z,15.15
2022-08-19T01:08:17.145Z,14.90
2022-08-19T01:13:27.933Z,12.32
2022-08-19T01:18:31.804Z,12.20
2022-08-19T01:23:46.437Z,11.05
2022-08-19T01:28:51.896Z,13.35
2022-08-19T01:33:56.638Z,12.38
2022-08-19T01:39:00.460Z,11.57
2022-08-19T01:44:18.081Z,15.15
2022-08-19T01:49:23.889Z,11.25
2022-08-19T01:54:27.403Z,12.68
2022-08-19T01:59:31.292Z,14.55
2022-08-19T02:04:34.992Z,13.52
2022-08-19T02:09:37.884Z,14.95
2022-08-19T02:14:40.604Z,13.50
2022-08-19T02:19:43.293Z,11.70
2022-08-19T02:24:45.975Z,12.98
2022-08-19T02:29:50.323Z,14.10
2022-08-19T02:34:53.070Z,13.70
2022-08-19T02:39:55.847Z,15.52
2022-08-19T02:44:58.699Z,14.02
2022-08-19T02:50:03.422Z,14.07
2022-08-19T02:55:07.113Z,16.20
2022-08-19T03:00:13.601Z,12.40
2022-08-19T03:05:16.397Z,16.00
2022-08-19T03:10:19.409Z,14.18
2022-08-19T03:15:22.199Z,15.70
2022-08-19T03:20:26.094Z,14.02
2022-08-19T03:25:29.032Z,14.43
2022-08-19T03:30:31.756Z,15.32
2022-08-19T03:35:39.700Z,18.40
2022-08-19T03:40:43.766Z,13.32
2022-08-19T03:45:46.495Z,13.98
2022-08-19T03:50:49.169Z,14.95
2022-08-19T03:55:51.866Z,16.73
2022-08-19T04:00:55.345Z,12.95
2022-08-19T04:05:58.183Z,17.05
2022-08-19T04:11:00.925Z,15.48
2022-08-19T04:16:05.195Z,13.98
2022-08-19T04:21:08.769Z,15.20
2022-08-19T04:26:16.731Z,15.77
2022-08-19T04:31:28.523Z,16.08
2022-08-19T04:36:34.507Z,12.02
2022-08-19T04:41:56.760Z,13.70
2022-08-19T04:46:59.882Z,14.63
2022-08-19T04:52:04.493Z,16.55
2022-08-19T04:57:10.732Z,13.13
2022-08-19T05:02:13.784Z,15.88
2022-08-19T05:07:16.482Z,12.25
2022-08-19T05:12:20.133Z,15.38
2022-08-19T05:17:33.503Z,20.08
2022-08-19T05:22:39.302Z,16.08
2022-08-19T05:27:43.438Z,13.88
2022-08-19T05:32:46.178Z,14.45
2022-08-19T05:37:48.959Z,16.60
2022-08-19T05:42:57.736Z,12.20
2022-08-19T05:48:01.562Z,11.40
2022-08-19T05:53:04.551Z,10.63
2022-08-19T05:58:08.653Z,12.35
2022-08-19T06:03:12.888Z,12.10
2022-08-19T06:08:16.401Z,10.55
2022-08-19T06:13:20.441Z,9.27
2022-08-19T06:18:23.526Z,10.90
2022-08-19T06:23:26.832Z,10.77
2022-08-19T06:28:29.620Z,13.68
2022-08-19T06:33:32.346Z,10.93
2022-08-19T06:38:35.171Z,11.55
2022-08-19T06:43:42.207Z,10.30
2022-08-19T06:48:45.897Z,10.73
2022-08-19T06:58:57.967Z,9.65
2022-08-19T07:04:03.362Z,6.85
2022-08-19T07:09:10.023Z,7.05
2022-08-19T07:14:16.667Z,8.35
2022-08-19T07:19:23.899Z,6.20
2022-08-19T07:24:28.275Z,9.52
2022-08-19T07:29:37.371Z,5.90
2022-08-19T07:34:40.813Z,7.28
2022-08-19T07:39:45.891Z,7.15
2022-08-19T07:44:50.510Z,6.22
2022-08-19T07:49:53.664Z,6.18
2022-08-19T07:54:56.449Z,5.03
2022-08-19T07:59:59.685Z,8.68
2022-08-19T08:05:21.123Z,6.65
2022-08-19T08:10:24.449Z,9.40
2022-08-19T08:15:27.354Z,28.95
2022-08-19T08:20:32.522Z,7.13
2022-08-19T08:25:36.552Z,4.93
2022-08-19T08:30:45.194Z,6.07
2022-08-19T08:35:48.419Z,5.15
2022-08-19T08:41:04.618Z,6.13
2022-08-19T08:46:31.689Z,4.18
2022-08-19T08:56:45.362Z,4.63
2022-08-19T09:01:48.988Z,4.65
2022-08-19T09:07:00.662Z,5.03
2022-08-19T09:12:14.945Z,5.90
2022-08-19T09:17:18.019Z,5.85
2022-08-19T09:22:25.425Z,5.22
2022-08-19T09:27:42.295Z,5.22
2022-08-19T09:32:47.366Z,5.63
2022-08-19T09:37:59.722Z,8.23
2022-08-19T09:43:09.914Z,7.05
2022-08-19T09:48:19.077Z,7.03
2022-08-19T09:53:26.555Z,6.53
2022-08-19T09:58:31.080Z,7.22
2022-08-19T10:03:35.923Z,8.32
2022-08-19T10:08:40.775Z,7.95
2022-08-19T10:13:53.243Z,5.63
2022-08-19T10:18:59.046Z,5.72
2022-08-19T10:24:05.088Z,5.75
2022-08-19T10:29:09.355Z,6.63
2022-08-19T10:34:26.676Z,8.27
2022-08-19T10:39:31.986Z,7.00
2022-08-19T10:44:36.517Z,8.60
2022-08-19T10:49:59.226Z,7.70
2022-08-19T10:55:24.916Z,10.75
2022-08-19T11:00:32.524Z,7.63
2022-08-19T11:05:40.091Z,5.30
2022-08-19T11:10:43.941Z,5.22
2022-08-19T11:16:00.886Z,6.13
2022-08-19T11:21:15.006Z,7.18
2022-08-19T11:26:18.973Z,5.88
2022-08-19T11:31:24.448Z,6.03
2022-08-19T11:36:33.577Z,4.97
2022-08-19T11:41:36.284Z,6.03
2022-08-19T11:46:39.571Z,6.20
2022-08-19T11:51:44.176Z,6.03
2022-08-19T11:56:48.773Z,5.03
2022-08-19T12:01:51.464Z,6.65
2022-08-19T12:06:54.191Z,6.43
2022-08-19T12:11:57.238Z,6.97
2022-08-19T12:17:03.583Z,5.05
2022-08-19T12:22:07.112Z,4.85
2022-08-19T12:27:12.534Z,5.55
2022-08-19T12:32:16.603Z,7.03
2022-08-19T12:37:19.287Z,5.38
2022-08-19T12:42:23.635Z,5.93
2022-08-19T12:47:27.557Z,7.35
2022-08-19T12:52:30.388Z,4.45
2022-08-19T12:57:35.580Z,4.50
2022-08-19T13:02:39.692Z,4.43
2022-08-19T13:07:44.814Z,4.57
2022-08-19T13:12:49.914Z,4.10
2022-08-19T13:17:54.841Z,5.25
2022-08-19T13:22:58.327Z,4.65
2022-08-19T13:28:01.602Z,5.32
2022-08-19T13:33:16.817Z,6.45
2022-08-19T13:38:22.055Z,4.57
2022-08-19T13:43:27.604Z,4.50
2022-08-19T13:48:32.101Z,4.38
2022-08-19T13:53:34.907Z,5.15
2022-08-19T13:58:38.178Z,4.55
2022-08-19T14:03:40.900Z,3.88
2022-08-19T14:08:46.271Z,4.15
2022-08-19T14:13:49.560Z,5.15
2022-08-19T14:18:52.601Z,5.82
2022-08-19T14:23:55.587Z,4.80
2022-08-19T14:28:58.834Z,4.50
2022-08-19T14:34:01.780Z,5.22
2022-08-19T14:39:05.109Z,4.75
2022-08-19T14:44:07.781Z,4.55
2022-08-19T14:49:10.470Z,3.70
2022-08-19T14:54:14.019Z,5.43
2022-08-19T14:59:16.854Z,4.60
2022-08-19T15:04:19.888Z,4.05
2022-08-19T15:09:22.597Z,5.07
2022-08-19T15:14:25.409Z,5.50
2022-08-19T15:19:28.815Z,5.35
2022-08-19T15:24:31.597Z,5.63
2022-08-19T15:29:34.420Z,6.60
2022-08-19T15:34:37.315Z,7.10
2022-08-19T15:39:40.081Z,6.00
2022-08-19T15:44:42.794Z,6.38
2022-08-19T15:49:45.531Z,7.50
2022-08-19T15:54:48.291Z,4.82
2022-08-19T16:00:09.600Z,5.25
2022-08-19T16:05:38.563Z,7.47
2022-08-19T16:10:41.354Z,6.90
2022-08-19T16:15:45.006Z,7.30
2022-08-19T16:20:48.572Z,6.50
2022-08-19T16:25:51.342Z,7.90
2022-08-19T16:30:54.485Z,12.68
2022-08-19T16:36:00.262Z,51.42
2022-08-19T16:41:10.006Z,51.53
2022-08-19T16:46:13.175Z,40.10
2022-08-19T16:51:22.887Z,30.90
2022-08-19T16:56:26.008Z,29.80
2022-08-19T17:01:29.556Z,26.73
2022-08-19T17:06:32.700Z,17.67
2022-08-19T17:11:36.051Z,15.38
2022-08-19T17:16:39.190Z,11.88
2022-08-19T17:21:42.067Z,9.65
2022-08-19T17:26:44.801Z,9.60
2022-08-19T17:31:47.524Z,12.82
2022-08-19T17:36:50.185Z,11.77
2022-08-19T17:41:53.383Z,12.55
2022-08-19T17:46:56.379Z,10.05
2022-08-19T17:51:59.673Z,12.43
2022-08-19T17:57:02.423Z,10.90
2022-08-19T18:02:06.628Z,8.68
2022-08-19T18:07:09.951Z,13.68
2022-08-19T18:12:15.715Z,11.50
2022-08-19T18:17:19.583Z,17.38
2022-08-19T18:22:25.255Z,8.88
2022-08-19T18:27:28.309Z,7.82
2022-08-19T18:32:34.919Z,8.27
2022-08-19T18:37:41.620Z,8.27
2022-08-19T18:43:04.461Z,12.77
2022-08-19T18:48:27.475Z,14.02
2022-08-19T18:53:34.395Z,12.20
2022-08-19T18:58:38.208Z,8.68
2022-08-19T19:03:52.943Z,9.48
2022-08-19T19:08:55.730Z,9.00
2022-08-19T19:13:59.566Z,9.23
2022-08-19T19:19:02.955Z,10.70
2022-08-19T19:24:05.741Z,7.47
2022-08-19T19:29:08.560Z,7.70
2022-08-19T19:34:29.635Z,12.73
2022-08-19T19:39:46.580Z,8.88
2022-08-19T19:44:51.812Z,9.23
2022-08-19T19:55:18.723Z,12.43
2022-08-19T20:00:22.409Z,7.20
2022-08-19T20:05:25.257Z,10.10
2022-08-19T20:10:28.001Z,9.55
2022-08-19T20:15:32.233Z,7.60
2022-08-19T20:20:35.482Z,9.98
2022-08-19T20:25:38.978Z,14.70
2022-08-19T20:30:46.622Z,11.18
2022-08-19T20:35:50.738Z,9.07
2022-08-19T20:40:53.477Z,11.02
2022-08-19T20:45:56.213Z,19.77
2022-08-19T20:50:59.253Z,16.48
2022-08-19T20:56:02.001Z,16.73
2022-08-19T21:01:06.927Z,13.20
2022-08-19T21:06:14.213Z,16.75
2022-08-19T21:11:16.919Z,14.35
2022-08-19T21:16:23.643Z,14.43
2022-08-19T21:21:26.512Z,18.00
2022-08-19T21:26:29.241Z,16.58
2022-08-19T21:31:32.273Z,18.52
2022-08-19T21:36:35.033Z,16.75
2022-08-19T21:41:40.679Z,18.75
2022-08-19T21:46:46.203Z,15.80
2022-08-19T21:51:53.488Z,17.83
2022-08-19T21:56:56.181Z,14.50
2022-08-19T22:02:15.577Z,15.50
2022-08-19T22:07:22.590Z,11.55
2022-08-19T22:12:28.799Z,14.50
2022-08-19T22:17:33.321Z,14.68
2022-08-19T22:22:36.541Z,11.65
2022-08-19T22:27:39.312Z,11.95
2022-08-19T22:32:49.522Z,15.18
2022-08-19T22:37:59.642Z,12.23
2022-08-19T22:43:08.406Z,10.75
2022-08-19T22:48:12.885Z,12.07
2022-08-19T22:53:16.706Z,14.52
2022-08-19T22:58:28.088Z,12.93
2022-08-19T23:03:31.502Z,10.90
2022-08-19T23:08:34.501Z,12.80
2022-08-19T23:13:39.605Z,13.10
2022-08-19T23:18:42.311Z,14.07
2022-08-19T23:23:45.059Z,16.35
2022-08-19T23:29:06.175Z,14.05
2022-08-19T23:34:08.936Z,13.30
2022-08-19T23:39:11.787Z,13.05
2022-08-19T23:44:15.108Z,15.98
2022-08-19T23:49:18.321Z,13.07
2022-08-19T23:54:21.111Z,13.60
2022-08-19T23:59:23.838Z,14.95
